Time,TemperatureF,DewpointF,PressureIn,WindDirection,WindDirectionDegrees,WindSpeedMPH,WindSpeedGustMPH,Humidity,HourlyPrecipIn,Conditions,Clouds,dailyrainin,SoftwareType,DateUTC
2013-10-23 00:14:00,73.0,72.0,29.86,South,173,3.0,3.0,98,99.99,,,-99.99,,2013-10-23 04:14:00,
2013-10-23 00:24:00,73.0,73.0,29.86,SW,217,0.0,3.0,99,99.99,,,-99.99,,2013-10-23 04:24:00,
2013-10-23 00:55:00,73.0,73.0,29.85,North,0,0.0,0.0,99,99.99,,,-99.99,,2013-10-23 04:55:00,
2013-10-23 01:23:00,73.0,73.0,29.85,SSW,194,2.0,3.0,100,99.99,,,-99.99,,2013-10-23 05:23:00,
2013-10-23 01:53:00,73.0,73.0,29.86,SW,221,2.0,3.0,100,99.99,,,-99.99,,2013-10-23 05:53:00,
2013-10-23 02:22:00,73.0,73.0,29.85,WSW,242,1.0,3.0,100,99.99,,,-99.99,,2013-10-23 06:22:00,
2013-10-23 02:52:00,73.0,73.0,29.85,WSW,257,3.0,5.0,100,99.99,,,-99.99,,2013-10-23 06:52:00,
2013-10-23 03:22:00,73.0,73.0,29.85,West,264,5.0,9.0,100,99.99,,,-99.99,,2013-10-23 07:22:00,
2013-10-23 03:52:00,73.0,73.0,29.84,WSW,255,3.0,6.0,100,99.99,,,-99.99,,2013-10-23 07:52:00,
2013-10-23 04:22:00,72.0,72.0,29.84,WSW,255,1.0,4.0,100,99.99,,,-99.99,,2013-10-23 08:22:00,
2013-10-23 04:53:00,72.0,72.0,29.84,West,269,2.0,5.0,100,99.99,,,-99.99,,2013-10-23 08:53:00,
2013-10-23 05:22:00,72.0,72.0,29.84,WSW,256,3.0,6.0,100,99.99,,,-99.99,,2013-10-23 09:22:00,
2013-10-23 05:53:00,72.0,72.0,29.85,SW,214,0.0,1.0,100,99.99,,,-99.99,,2013-10-23 09:53:00,
2013-10-23 06:23:00,73.0,73.0,29.86,WSW,253,1.0,3.0,100,99.99,,,-99.99,,2013-10-23 10:23:00,
2013-10-23 06:53:00,73.0,73.0,29.87,West,276,2.0,7.0,100,99.99,,,-99.99,,2013-10-23 10:53:00,
2013-10-23 07:22:00,73.0,73.0,29.88,NNW,338,2.0,7.0,100,99.99,,,-99.99,,2013-10-23 11:22:00,
2013-10-23 07:52:00,73.0,73.0,29.89,West,280,0.0,1.0,100,99.99,,,-99.99,,2013-10-23 11:52:00,
2013-10-23 08:22:00,72.0,72.0,29.89,NNW,329,2.0,4.0,100,99.99,,,-99.99,,2013-10-23 12:22:00,
2013-10-23 08:52:00,73.0,73.0,29.90,NW,309,2.0,5.0,100,99.99,,,-99.99,,2013-10-23 12:52:00,
2013-10-23 09:22:00,73.0,73.0,29.91,NW,304,3.0,5.0,100,99.99,,,-99.99,,2013-10-23 13:22:00,
2013-10-23 09:52:00,74.0,74.0,29.92,NW,311,3.0,5.0,99,99.99,,,-99.99,,2013-10-23 13:52:00,
2013-10-23 10:22:00,74.0,74.0,29.93,NNW,329,5.0,9.0,99,99.99,,,-99.99,,2013-10-23 14:22:00,
2013-10-23 10:52:00,75.0,71.0,29.94,NNW,338,8.0,17.0,88,99.99,,,-99.99,,2013-10-23 14:52:00,
2013-10-23 11:22:00,75.0,69.0,29.94,NNW,333,8.0,14.0,83,99.99,,,-99.99,,2013-10-23 15:22:00,
2013-10-23 11:53:00,75.0,68.0,29.94,NNW,342,8.0,15.0,80,99.99,,,-99.99,,2013-10-23 15:53:00,
2013-10-23 12:23:00,76.0,69.0,29.94,North,357,6.0,12.0,78,99.99,,,-99.99,,2013-10-23 16:23:00,
2013-10-23 12:53:00,76.0,66.0,29.94,North,350,6.0,13.0,72,99.99,,,-99.99,,2013-10-23 16:53:00,
2013-10-23 13:23:00,77.0,68.0,29.93,North,350,3.0,8.0,74,99.99,,,-99.99,,2013-10-23 17:23:00,
2013-10-23 13:52:00,76.0,66.0,29.92,NNW,342,6.0,10.0,72,99.99,,,-99.99,,2013-10-23 17:52:00,
2013-10-23 14:22:00,77.0,67.0,29.91,North,353,6.0,12.0,71,99.99,,,-99.99,,2013-10-23 18:22:00,
2013-10-23 14:51:00,77.0,64.0,29.91,NW,326,5.0,9.0,65,99.99,,,-99.99,,2013-10-23 18:51:00,
2013-10-23 15:12:00,78.0,64.0,29.90,NNW,339,5.0,8.0,62,99.99,,,-99.99,,2013-10-23 19:12:00,
2013-10-23 15:22:00,78.0,62.0,29.90,NNW,329,5.0,9.0,59,99.99,,,-99.99,,2013-10-23 19:22:00,
2013-10-23 15:53:00,79.0,64.0,29.90,North,7,7.0,12.0,61,99.99,,,-99.99,,2013-10-23 19:53:00,
2013-10-23 16:22:00,79.0,64.0,29.90,North,359,6.0,11.0,60,99.99,,,-99.99,,2013-10-23 20:22:00,
2013-10-23 16:52:00,80.0,63.0,29.90,NNW,335,4.0,8.0,57,99.99,,,-99.99,,2013-10-23 20:52:00,
2013-10-23 17:22:00,80.0,62.0,29.91,NW,318,4.0,6.0,54,99.99,,,-99.99,,2013-10-23 21:22:00,
2013-10-23 17:54:00,80.0,62.0,29.91,North,349,3.0,7.0,54,99.99,,,-99.99,,2013-10-23 21:54:00,
2013-10-23 18:24:00,79.0,59.0,29.91,NW,321,3.0,6.0,51,99.99,,,-99.99,,2013-10-23 22:24:00,
2013-10-23 18:54:00,78.0,61.0,29.92,West,280,2.0,4.0,56,99.99,,,-99.99,,2013-10-23 22:54:00,
2013-10-23 19:22:00,76.0,60.0,29.93,WNW,287,2.0,5.0,58,99.99,,,-99.99,,2013-10-23 23:22:00,
2013-10-23 19:52:00,74.0,59.0,29.94,WNW,287,5.0,10.0,60,99.99,,,-99.99,,2013-10-23 23:52:00,
2013-10-23 20:22:00,73.0,57.0,29.95,WNW,285,4.0,6.0,58,99.99,,,-99.99,,2013-10-24 00:22:00,
2013-10-23 20:32:00,73.0,57.0,29.95,WNW,285,4.0,6.0,58,99.99,,,-99.99,,2013-10-24 00:32:00,
2013-10-23 20:52:00,72.0,58.0,29.96,WNW,285,3.0,5.0,62,99.99,,,-99.99,,2013-10-24 00:52:00,
2013-10-23 21:22:00,71.0,59.0,29.97,West,281,5.0,8.0,67,99.99,,,-99.99,,2013-10-24 01:22:00,
2013-10-23 21:52:00,71.0,60.0,29.97,NNW,346,4.0,7.0,69,99.99,,,-99.99,,2013-10-24 01:52:00,
2013-10-23 22:12:00,70.0,60.0,29.98,NW,308,4.0,7.0,71,99.99,,,-99.99,,2013-10-24 02:12:00,
2013-10-23 22:22:00,70.0,60.0,29.99,NW,308,3.0,7.0,71,99.99,,,-99.99,,2013-10-24 02:22:00,
2013-10-23 23:22:00,69.0,61.0,30.01,NNW,338,4.0,7.0,75,99.99,,,-99.99,,2013-10-24 03:22:00,
2013-10-23 23:54:00,69.0,60.0,30.02,NW,323,4.0,9.0,72,99.99,,,-99.99,,2013-10-24 03:54:00,